RJDO(METAR)
05/13 10:00
RJDO 130100Z 13006KT CAVOK 20/16 Q1015 RMK A2999=
戻る
トップページへ戻る
IMOC Co,.Ltd.